createdAt,value
2023-03-26T00:02:06.031Z,11.80
2023-03-26T00:04:34.660Z,11.93
2023-03-26T00:07:03.148Z,11.79
2023-03-26T00:09:31.298Z,11.73
2023-03-26T00:11:59.230Z,11.34
2023-03-26T00:14:29.169Z,11.39
2023-03-26T00:16:57.172Z,11.25
2023-03-26T00:19:25.387Z,11.14
2023-03-26T00:21:53.374Z,11.21
2023-03-26T00:24:21.542Z,11.19
2023-03-26T00:26:53.592Z,11.09
2023-03-26T00:29:23.068Z,11.11
2023-03-26T00:31:52.529Z,11.18
2023-03-26T00:34:23.026Z,11.30
2023-03-26T00:36:54.359Z,11.21
2023-03-26T00:39:24.120Z,11.13
2023-03-26T00:41:54.516Z,11.12
2023-03-26T00:44:23.269Z,11.22
2023-03-26T00:46:52.710Z,11.33
2023-03-26T00:49:20.728Z,11.47
2023-03-26T00:51:48.641Z,11.47
2023-03-26T00:54:16.685Z,11.48
2023-03-26T00:56:44.733Z,11.53
2023-03-26T00:59:12.892Z,11.58
2023-03-26T01:01:40.933Z,11.52
2023-03-26T01:04:37.745Z,11.62
2023-03-26T01:07:13.422Z,11.76
2023-03-26T01:09:45.248Z,11.88
2023-03-26T01:12:17.236Z,11.99
2023-03-26T01:14:46.209Z,11.97
2023-03-26T01:17:14.883Z,12.01
2023-03-26T01:19:52.614Z,11.86
2023-03-26T01:22:22.853Z,12.07
2023-03-26T01:24:56.310Z,11.92
2023-03-26T01:27:38.946Z,12.06
2023-03-26T01:30:14.949Z,11.93
2023-03-26T01:33:00.763Z,11.94
2023-03-26T01:35:43.876Z,12.00
2023-03-26T01:38:28.753Z,11.71
2023-03-26T01:41:01.915Z,11.77
2023-03-26T01:43:37.498Z,11.60
2023-03-26T01:46:10.147Z,11.69
2023-03-26T01:48:40.621Z,11.73
2023-03-26T01:51:11.476Z,11.92
2023-03-26T01:53:43.726Z,11.99
2023-03-26T01:56:19.225Z,11.99
2023-03-26T01:59:01.536Z,12.00
2023-03-26T02:01:34.182Z,12.07
2023-03-26T02:04:09.913Z,12.07
2023-03-26T02:06:44.524Z,12.06
2023-03-26T02:09:16.035Z,12.04
2023-03-26T02:11:47.454Z,12.18
2023-03-26T02:14:16.396Z,12.27
2023-03-26T02:16:47.142Z,12.29
2023-03-26T02:19:21.967Z,12.34
2023-03-26T02:21:51.464Z,12.45
2023-03-26T02:24:20.106Z,12.43
2023-03-26T02:26:49.500Z,12.44
2023-03-26T02:29:20.593Z,12.44
2023-03-26T02:31:49.157Z,12.30
2023-03-26T02:34:17.584Z,12.33
2023-03-26T02:36:45.536Z,12.22
2023-03-26T02:39:14.412Z,12.39
2023-03-26T02:41:42.446Z,12.43
2023-03-26T02:44:11.786Z,12.50
2023-03-26T02:46:39.670Z,12.58
2023-03-26T02:49:08.246Z,12.53
2023-03-26T02:51:37.546Z,12.48
2023-03-26T02:54:07.040Z,12.46
2023-03-26T02:56:35.313Z,12.40
2023-03-26T02:59:03.358Z,12.48
2023-03-26T03:01:35.108Z,12.50
2023-03-26T03:04:04.201Z,12.27
2023-03-26T03:06:32.518Z,12.37
2023-03-26T03:09:03.334Z,12.28
2023-03-26T03:11:31.392Z,12.34
2023-03-26T03:13:59.319Z,12.31
2023-03-26T03:16:27.558Z,12.14
2023-03-26T03:18:58.269Z,12.17
2023-03-26T03:21:28.103Z,12.25
2023-03-26T03:23:56.406Z,12.15
2023-03-26T03:26:30.133Z,12.26
2023-03-26T03:28:59.232Z,12.10
2023-03-26T03:31:28.509Z,12.11
2023-03-26T03:33:57.904Z,12.17
2023-03-26T03:36:27.976Z,12.11
2023-03-26T03:38:55.980Z,12.17
2023-03-26T03:41:23.924Z,11.85
2023-03-26T03:43:51.934Z,11.86
2023-03-26T03:46:19.850Z,11.85
2023-03-26T03:48:49.945Z,12.04
2023-03-26T03:51:19.389Z,12.04
2023-03-26T03:53:48.209Z,11.92
2023-03-26T03:56:19.286Z,11.97
2023-03-26T03:58:47.504Z,11.87
2023-03-26T04:01:17.014Z,11.92
2023-03-26T04:03:46.511Z,11.88
2023-03-26T04:06:18.819Z,11.82
2023-03-26T04:08:48.469Z,11.86
2023-03-26T04:11:16.502Z,11.91
2023-03-26T04:13:44.521Z,11.77
2023-03-26T04:16:12.805Z,11.70
2023-03-26T04:18:40.867Z,11.48
2023-03-26T04:21:08.987Z,11.41
2023-03-26T04:23:36.982Z,11.51
2023-03-26T04:26:10.538Z,11.47
2023-03-26T04:28:46.538Z,11.41
2023-03-26T04:31:17.184Z,11.39
2023-03-26T04:33:47.493Z,11.50
2023-03-26T04:36:16.872Z,11.54
2023-03-26T04:38:49.022Z,11.61
2023-03-26T04:41:18.697Z,11.61
2023-03-26T04:43:50.558Z,11.68
2023-03-26T04:46:21.718Z,11.53
2023-03-26T04:48:50.125Z,11.63
2023-03-26T04:51:19.492Z,11.66
2023-03-26T04:53:52.720Z,11.78
2023-03-26T04:56:34.205Z,11.76
2023-03-26T04:59:03.140Z,11.94
2023-03-26T05:01:31.180Z,12.05
2023-03-26T05:03:59.649Z,12.26
2023-03-26T05:06:30.490Z,12.43
2023-03-26T05:08:58.424Z,12.56
2023-03-26T05:11:27.759Z,12.47
2023-03-26T05:13:57.016Z,12.58
2023-03-26T05:16:25.519Z,12.71
2023-03-26T05:18:54.083Z,12.83
2023-03-26T05:21:22.459Z,12.80
2023-03-26T05:23:50.498Z,12.83
2023-03-26T05:26:18.742Z,12.92
2023-03-26T05:28:48.124Z,12.86
2023-03-26T05:31:16.901Z,13.06
2023-03-26T05:33:44.916Z,12.93
2023-03-26T05:36:15.405Z,13.06
2023-03-26T05:38:47.335Z,13.52
2023-03-26T05:41:15.389Z,14.25
2023-03-26T05:43:44.902Z,14.99
2023-03-26T05:46:14.736Z,14.70
2023-03-26T05:48:42.792Z,14.96
2023-03-26T05:51:12.376Z,14.77
2023-03-26T05:53:40.454Z,14.93
2023-03-26T05:56:09.462Z,14.64
2023-03-26T05:58:37.991Z,15.08
2023-03-26T06:01:08.436Z,15.39
2023-03-26T06:03:39.378Z,15.92
2023-03-26T06:06:09.382Z,15.89
2023-03-26T06:08:37.505Z,16.09
2023-03-26T06:11:08.233Z,15.75
2023-03-26T06:13:36.377Z,15.81
2023-03-26T06:16:04.362Z,16.55
2023-03-26T06:18:32.390Z,16.91
2023-03-26T06:21:01.770Z,17.37
2023-03-26T06:23:29.768Z,17.55
2023-03-26T06:25:57.706Z,17.27
2023-03-26T06:28:26.378Z,17.03
2023-03-26T06:30:54.803Z,16.90
2023-03-26T06:33:24.583Z,16.85
2023-03-26T06:35:52.716Z,16.69
2023-03-26T06:38:22.001Z,16.59
2023-03-26T06:40:50.041Z,16.31
2023-03-26T06:43:18.099Z,16.14
2023-03-26T06:45:46.060Z,16.26
2023-03-26T06:48:14.022Z,15.99
2023-03-26T06:50:41.989Z,16.35
2023-03-26T06:53:11.343Z,17.26
2023-03-26T06:55:40.662Z,17.23
2023-03-26T06:58:08.666Z,16.89
2023-03-26T07:00:36.638Z,16.89
2023-03-26T07:03:04.892Z,17.25
2023-03-26T07:05:33.149Z,17.11
2023-03-26T07:08:01.077Z,17.14
2023-03-26T07:10:29.045Z,17.51
2023-03-26T07:12:58.336Z,17.63
2023-03-26T07:15:26.325Z,17.48
2023-03-26T07:17:54.281Z,16.76
2023-03-26T07:20:22.649Z,17.61
2023-03-26T07:22:51.178Z,18.15
2023-03-26T07:25:19.840Z,18.59
2023-03-26T07:27:59.337Z,17.55
2023-03-26T07:30:35.564Z,17.73
2023-03-26T07:33:08.879Z,18.13
2023-03-26T07:35:42.821Z,18.98
2023-03-26T07:38:33.305Z,18.78
2023-03-26T07:41:09.761Z,19.59
2023-03-26T07:43:54.799Z,19.57
2023-03-26T07:46:29.878Z,20.21
2023-03-26T07:49:00.572Z,19.56
2023-03-26T07:51:29.431Z,20.87
2023-03-26T07:54:00.509Z,20.32
2023-03-26T07:56:36.021Z,18.45
2023-03-26T07:59:19.006Z,18.69
2023-03-26T08:02:00.652Z,18.74
2023-03-26T08:04:56.788Z,19.26
2023-03-26T08:07:35.108Z,19.45
2023-03-26T08:10:13.513Z,19.76
2023-03-26T08:12:51.912Z,19.90
2023-03-26T08:15:29.544Z,18.76
2023-03-26T08:18:07.817Z,19.50
2023-03-26T08:20:41.575Z,18.51
2023-03-26T08:23:18.201Z,19.28
2023-03-26T08:25:59.328Z,19.21
2023-03-26T08:28:39.057Z,18.93
2023-03-26T08:31:09.326Z,18.87
2023-03-26T08:33:40.765Z,18.82
2023-03-26T08:36:10.013Z,18.80
2023-03-26T08:38:37.950Z,18.81
2023-03-26T08:41:50.012Z,19.65
2023-03-26T08:45:12.018Z,19.40
2023-03-26T08:48:24.724Z,20.03
2023-03-26T08:51:27.885Z,19.85
2023-03-26T08:54:19.861Z,20.28
2023-03-26T08:56:58.505Z,20.97
2023-03-26T09:00:15.703Z,20.45
2023-03-26T09:03:18.905Z,20.52
2023-03-26T09:06:13.701Z,21.03
2023-03-26T09:09:18.781Z,20.73
2023-03-26T09:12:10.889Z,21.07
2023-03-26T09:15:15.338Z,21.07
2023-03-26T09:18:17.835Z,20.81
2023-03-26T09:21:29.961Z,21.33
2023-03-26T09:24:27.741Z,21.49
2023-03-26T09:27:13.063Z,21.08
2023-03-26T09:30:33.709Z,20.70
2023-03-26T09:33:35.381Z,20.94
2023-03-26T09:36:29.714Z,21.09
2023-03-26T09:39:10.024Z,21.19
2023-03-26T09:41:44.740Z,21.15
2023-03-26T09:44:44.873Z,20.42
2023-03-26T09:47:44.984Z,20.31
2023-03-26T09:50:35.699Z,20.45
2023-03-26T09:53:20.017Z,20.56
2023-03-26T09:56:04.708Z,20.79
2023-03-26T09:59:25.393Z,21.18
2023-03-26T10:02:11.652Z,21.14
2023-03-26T10:05:10.955Z,20.10
2023-03-26T10:08:07.162Z,20.57
2023-03-26T10:10:44.297Z,20.54
2023-03-26T10:13:27.518Z,19.81
2023-03-26T10:16:06.805Z,19.91
2023-03-26T10:18:48.848Z,20.07
2023-03-26T10:21:28.580Z,20.14
2023-03-26T10:24:12.327Z,20.06
2023-03-26T10:27:09.677Z,19.87
2023-03-26T10:30:04.864Z,20.06
2023-03-26T10:32:44.247Z,20.26
2023-03-26T10:35:25.904Z,19.95
2023-03-26T10:38:07.209Z,19.85
2023-03-26T10:40:44.793Z,20.35
2023-03-26T10:44:05.248Z,20.64
2023-03-26T10:47:01.268Z,19.99
2023-03-26T10:49:57.054Z,20.26
2023-03-26T10:52:28.926Z,20.06
2023-03-26T10:54:59.817Z,19.58
2023-03-26T10:57:39.523Z,20.02
2023-03-26T11:00:17.211Z,20.38
2023-03-26T11:02:55.798Z,20.50
2023-03-26T11:05:52.818Z,20.69
2023-03-26T11:08:32.621Z,20.66
2023-03-26T11:11:13.070Z,20.65
2023-03-26T11:13:51.008Z,20.73
2023-03-26T11:16:26.858Z,20.13
2023-03-26T11:19:00.545Z,20.22
2023-03-26T11:21:34.845Z,20.42
2023-03-26T11:24:38.856Z,20.38
2023-03-26T11:27:15.373Z,20.27
2023-03-26T11:29:52.985Z,20.26
2023-03-26T11:32:23.838Z,19.90
2023-03-26T11:35:02.466Z,19.62
2023-03-26T11:37:35.121Z,20.11
2023-03-26T11:40:12.576Z,20.28
2023-03-26T11:42:43.155Z,20.54
2023-03-26T11:45:18.449Z,20.40
2023-03-26T11:47:50.515Z,20.39
2023-03-26T11:50:22.902Z,20.68
2023-03-26T11:52:50.976Z,20.79
2023-03-26T11:55:20.798Z,20.47
2023-03-26T11:57:54.325Z,20.19
2023-03-26T12:00:27.590Z,19.82
2023-03-26T12:02:59.306Z,19.47
2023-03-26T12:05:31.465Z,19.14
2023-03-26T12:08:01.031Z,19.29
2023-03-26T12:10:37.761Z,19.64
2023-03-26T12:13:29.285Z,20.11
2023-03-26T12:15:59.762Z,20.06
2023-03-26T12:18:29.477Z,19.92
2023-03-26T12:21:08.726Z,19.63
2023-03-26T12:23:51.784Z,20.10
2023-03-26T12:26:30.339Z,19.30
2023-03-26T12:28:58.247Z,19.81
2023-03-26T12:31:26.557Z,20.11
2023-03-26T12:34:07.778Z,20.15
2023-03-26T12:36:36.377Z,20.45
2023-03-26T12:40:10.040Z,20.48
2023-03-26T12:44:44.334Z,20.29
2023-03-26T12:45:17.117Z,19.84
2023-03-26T12:47:58.514Z,20.07
2023-03-26T12:50:43.099Z,20.32
2023-03-26T12:53:39.645Z,19.99
2023-03-26T12:56:21.500Z,19.73
2023-03-26T12:59:13.110Z,20.18
2023-03-26T13:01:51.881Z,20.21
2023-03-26T13:04:37.598Z,19.95
2023-03-26T13:07:15.933Z,20.08
2023-03-26T13:10:00.860Z,19.98
2023-03-26T13:12:40.992Z,19.71
2023-03-26T13:15:26.014Z,19.88
2023-03-26T13:18:07.615Z,20.31
2023-03-26T13:20:49.016Z,20.57
2023-03-26T13:23:28.150Z,20.61
2023-03-26T13:26:07.233Z,20.55
2023-03-26T13:28:44.999Z,20.36
2023-03-26T13:31:21.947Z,20.32
2023-03-26T13:34:01.536Z,20.19
2023-03-26T13:36:40.171Z,20.25
2023-03-26T13:39:19.838Z,19.90
2023-03-26T13:42:15.898Z,19.65
2023-03-26T13:45:04.490Z,19.86
2023-03-26T13:47:39.367Z,19.65
2023-03-26T13:50:16.005Z,19.69
2023-03-26T13:52:47.032Z,19.53
2023-03-26T13:55:23.384Z,19.87
2023-03-26T13:57:59.981Z,20.01
2023-03-26T14:00:32.580Z,20.23
2023-03-26T14:03:11.682Z,20.37
2023-03-26T14:05:43.515Z,20.23
2023-03-26T14:08:21.048Z,20.39
2023-03-26T14:10:53.023Z,20.26
2023-03-26T14:13:27.953Z,20.02
2023-03-26T14:15:59.038Z,20.05
2023-03-26T14:18:36.921Z,20.17
2023-03-26T14:21:26.633Z,20.34
2023-03-26T14:24:14.486Z,20.48
2023-03-26T14:27:10.649Z,20.62
2023-03-26T14:29:56.705Z,20.16
2023-03-26T14:32:51.630Z,19.91
2023-03-26T14:35:37.810Z,20.19
2023-03-26T14:38:33.836Z,20.14
2023-03-26T14:41:19.208Z,20.06
2023-03-26T14:44:49.114Z,19.80
2023-03-26T14:47:19.036Z,19.77
2023-03-26T14:50:31.547Z,19.69
2023-03-26T14:53:06.802Z,19.39
2023-03-26T14:55:53.273Z,19.86
2023-03-26T14:58:53.900Z,19.79
2023-03-26T15:01:28.906Z,19.56
2023-03-26T15:04:43.697Z,19.78
2023-03-26T15:07:52.673Z,19.76
2023-03-26T15:10:51.042Z,19.70
2023-03-26T15:13:52.927Z,19.72
2023-03-26T15:16:57.870Z,19.93
2023-03-26T15:19:56.890Z,19.72
2023-03-26T15:23:00.913Z,19.76
2023-03-26T15:26:11.215Z,19.02
2023-03-26T15:29:17.363Z,19.38
2023-03-26T15:32:26.081Z,19.17
2023-03-26T15:35:25.847Z,19.26
2023-03-26T15:38:46.996Z,19.17
2023-03-26T15:41:27.919Z,19.17
2023-03-26T15:44:29.047Z,19.25
2023-03-26T15:47:17.222Z,19.02
2023-03-26T15:49:52.246Z,19.02
2023-03-26T15:52:29.113Z,18.99
2023-03-26T15:55:04.095Z,18.85
2023-03-26T15:57:41.089Z,18.77
2023-03-26T16:00:22.882Z,18.71
2023-03-26T16:03:17.657Z,18.64
2023-03-26T16:06:10.877Z,18.62
2023-03-26T16:08:47.242Z,18.58
2023-03-26T16:11:15.737Z,18.49
2023-03-26T16:13:51.144Z,18.54
2023-03-26T16:16:24.815Z,18.33
2023-03-26T16:19:20.204Z,18.43
2023-03-26T16:21:57.718Z,18.56
2023-03-26T16:24:29.281Z,18.49
2023-03-26T16:27:29.033Z,18.41
2023-03-26T16:30:30.313Z,18.53
2023-03-26T16:33:09.597Z,18.39
2023-03-26T16:36:05.676Z,18.12
2023-03-26T16:38:50.664Z,17.96
2023-03-26T16:41:20.684Z,17.65
2023-03-26T16:43:57.549Z,17.66
2023-03-26T16:46:32.543Z,17.85
2023-03-26T16:49:08.559Z,17.72
2023-03-26T16:52:01.520Z,17.84
2023-03-26T16:54:42.937Z,17.74
2023-03-26T16:57:23.737Z,17.61
2023-03-26T17:00:31.484Z,17.59
2023-03-26T17:03:17.000Z,17.71
2023-03-26T17:06:02.210Z,17.68
2023-03-26T17:08:42.009Z,17.32
2023-03-26T17:11:23.007Z,17.41
2023-03-26T17:14:04.326Z,17.32
2023-03-26T17:16:36.027Z,17.18
2023-03-26T17:19:19.149Z,17.17
2023-03-26T17:21:56.750Z,17.11
2023-03-26T17:24:35.041Z,17.14
2023-03-26T17:27:09.893Z,16.99
2023-03-26T17:30:00.862Z,17.03
2023-03-26T17:32:54.327Z,17.03
2023-03-26T17:35:39.034Z,16.91
2023-03-26T17:38:32.973Z,16.89
2023-03-26T17:41:01.455Z,16.73
2023-03-26T17:43:42.772Z,16.77
2023-03-26T17:46:23.295Z,16.72
2023-03-26T17:48:57.896Z,16.61
2023-03-26T17:51:42.022Z,16.57
2023-03-26T17:54:18.732Z,16.58
2023-03-26T17:56:47.981Z,16.56
2023-03-26T17:59:23.419Z,16.27
2023-03-26T18:01:55.862Z,16.31
2023-03-26T18:04:31.514Z,16.28
2023-03-26T18:07:19.007Z,16.32
2023-03-26T18:10:05.030Z,16.30
2023-03-26T18:13:23.922Z,16.08
2023-03-26T18:16:06.197Z,16.14
2023-03-26T18:18:38.534Z,16.09
2023-03-26T18:21:08.258Z,15.94
2023-03-26T18:23:40.516Z,15.94
2023-03-26T18:26:14.893Z,15.82
2023-03-26T18:28:45.863Z,15.81
2023-03-26T18:31:20.497Z,15.81
2023-03-26T18:33:50.673Z,15.75
2023-03-26T18:36:19.754Z,15.71
2023-03-26T18:38:49.873Z,15.56
2023-03-26T18:41:30.748Z,15.41
2023-03-26T18:44:03.038Z,15.43
2023-03-26T18:46:31.243Z,15.25
2023-03-26T18:49:03.096Z,15.44
2023-03-26T18:51:33.024Z,15.50
2023-03-26T18:54:07.837Z,15.43
2023-03-26T18:56:38.233Z,15.40
2023-03-26T18:59:08.738Z,15.39
2023-03-26T19:01:38.539Z,15.38
2023-03-26T19:04:09.133Z,14.81
2023-03-26T19:06:42.006Z,14.68
2023-03-26T19:09:28.224Z,14.94
2023-03-26T19:12:06.017Z,14.71
2023-03-26T19:14:36.888Z,14.95
2023-03-26T19:17:08.317Z,14.85
2023-03-26T19:19:38.641Z,14.84
2023-03-26T19:22:12.576Z,14.83
2023-03-26T19:24:43.102Z,14.53
2023-03-26T19:27:12.685Z,14.57
2023-03-26T19:29:43.360Z,14.48
2023-03-26T19:32:18.276Z,14.15
2023-03-26T19:34:47.222Z,14.16
2023-03-26T19:37:21.558Z,13.86
2023-03-26T19:39:53.144Z,13.56
2023-03-26T19:42:26.583Z,13.24
2023-03-26T19:44:55.425Z,12.85
2023-03-26T19:50:25.563Z,12.66
2023-03-26T19:51:18.551Z,12.44
2023-03-26T19:53:16.722Z,13.04
2023-03-26T19:55:56.501Z,13.24
2023-03-26T19:58:26.059Z,13.09
2023-03-26T20:00:56.282Z,13.35
2023-03-26T20:03:29.030Z,13.41
2023-03-26T20:05:57.443Z,13.37
2023-03-26T20:08:27.295Z,13.37
2023-03-26T20:10:58.953Z,13.11
2023-03-26T20:13:27.452Z,13.20
2023-03-26T20:16:05.683Z,13.10
2023-03-26T20:18:34.439Z,13.06
2023-03-26T20:21:02.533Z,13.17
2023-03-26T20:23:30.464Z,13.33
2023-03-26T20:25:59.791Z,13.25
2023-03-26T20:28:27.748Z,13.35
2023-03-26T20:30:55.921Z,13.28
2023-03-26T20:33:27.128Z,13.34
2023-03-26T20:35:56.873Z,12.59
2023-03-26T20:38:39.111Z,12.82
2023-03-26T20:41:13.315Z,13.06
2023-03-26T20:43:41.328Z,12.97
2023-03-26T20:46:14.980Z,12.50
2023-03-26T20:48:42.951Z,12.24
2023-03-26T20:51:12.650Z,12.27
2023-03-26T20:53:41.655Z,12.51
2023-03-26T20:56:15.509Z,12.21
2023-03-26T20:58:44.601Z,12.32
2023-03-26T21:01:12.837Z,12.40
2023-03-26T21:03:42.180Z,12.48
2023-03-26T21:06:13.621Z,12.19
2023-03-26T21:08:42.440Z,12.37
2023-03-26T21:11:26.690Z,12.42
2023-03-26T21:14:01.140Z,12.49
2023-03-26T21:16:29.608Z,12.29
2023-03-26T21:18:59.021Z,12.43
2023-03-26T21:21:42.838Z,12.50
2023-03-26T21:24:22.834Z,11.59
2023-03-26T21:26:57.632Z,11.00
2023-03-26T21:29:26.056Z,10.40
2023-03-26T21:31:55.076Z,10.30
2023-03-26T21:34:23.749Z,10.26
2023-03-26T21:36:52.659Z,10.13
2023-03-26T21:39:21.108Z,9.64
2023-03-26T21:42:05.377Z,9.42
2023-03-26T21:44:36.103Z,9.03
2023-03-26T21:47:04.570Z,8.69
2023-03-26T21:49:33.138Z,8.53
2023-03-26T21:52:01.655Z,8.59
2023-03-26T21:54:31.621Z,8.47
2023-03-26T21:57:25.556Z,8.53
2023-03-26T22:00:08.246Z,8.77
2023-03-26T22:02:43.292Z,8.93
2023-03-26T22:05:16.323Z,9.22
2023-03-26T22:07:55.347Z,9.34
2023-03-26T22:10:23.529Z,9.48
2023-03-26T22:12:51.479Z,9.22
2023-03-26T22:15:21.949Z,9.17
2023-03-26T22:17:53.841Z,8.83
2023-03-26T22:20:24.639Z,8.62
2023-03-26T22:22:53.442Z,8.90
2023-03-26T22:25:22.820Z,8.87
2023-03-26T22:27:52.100Z,8.86
2023-03-26T22:30:21.891Z,8.98
2023-03-26T22:32:50.277Z,8.80
2023-03-26T22:35:18.359Z,8.47
2023-03-26T22:37:47.468Z,8.12
2023-03-26T22:40:16.228Z,8.01
2023-03-26T22:42:44.100Z,8.13
2023-03-26T22:45:12.797Z,8.10
2023-03-26T22:47:42.205Z,7.92
2023-03-26T22:50:11.118Z,7.92
2023-03-26T22:52:40.743Z,7.87
2023-03-26T22:55:11.095Z,7.85
2023-03-26T22:57:39.192Z,7.77
2023-03-26T23:00:16.178Z,7.76
2023-03-26T23:02:47.377Z,7.67
2023-03-26T23:05:17.414Z,7.57
2023-03-26T23:07:46.048Z,7.72
2023-03-26T23:10:14.978Z,8.14
2023-03-26T23:12:42.886Z,8.26
2023-03-26T23:15:11.825Z,8.24
2023-03-26T23:17:40.345Z,8.21
2023-03-26T23:20:15.472Z,8.34
2023-03-26T23:22:43.760Z,8.40
2023-03-26T23:25:12.163Z,8.21
2023-03-26T23:27:40.306Z,8.19
2023-03-26T23:30:10.785Z,8.43
2023-03-26T23:32:38.868Z,8.41
2023-03-26T23:35:07.796Z,8.45
2023-03-26T23:37:37.095Z,8.50
2023-03-26T23:40:10.215Z,8.22
2023-03-26T23:42:38.552Z,8.11
2023-03-26T23:45:08.545Z,8.03
2023-03-26T23:47:37.345Z,8.17
2023-03-26T23:50:08.181Z,8.20
2023-03-26T23:52:37.702Z,8.09
2023-03-26T23:55:06.263Z,7.86
2023-03-26T23:57:34.223Z,7.72
